Time;durP1;ratioP1;P1;durP2;ratioP2;P2;SDS_P1;SDS_P2;PMS_P1;PMS_P2;Temp;Humidity;BMP_temperature;BMP_pressure;BME280_temperature;BME280_humidity;BME280_pressure;Samples;Min_cycle;Max_cycle;Signal;HPM_P1;HPM_P2
2022/08/02 00:00:15;;;;;;;8.03;3.00;;;;;;;17.39;54.14;101769.38;5308257;28;20032;-71
2022/08/02 00:02:48;;;;;;;8.53;2.63;;;;;;;17.47;54.10;101754.72;5311602;28;20015;-71
2022/08/02 00:05:19;;;;;;;6.33;2.43;;;;;;;17.42;54.34;101769.16;5310652;28;20023;-70
2022/08/02 00:07:50;;;;;;;6.73;2.37;;;;;;;17.62;53.65;101764.16;5311536;28;20031;-71
2022/08/02 00:10:22;;;;;;;5.00;2.43;;;;;;;17.68;53.83;101770.78;5311394;28;20039;-71
2022/08/02 00:12:53;;;;;;;5.03;2.63;;;;;;;17.67;53.21;101771.75;5310109;28;20055;-71
2022/08/02 00:15:25;;;;;;;8.20;2.80;;;;;;;17.44;54.28;101763.72;5308779;28;20024;-71
2022/08/02 00:17:56;;;;;;;5.30;2.20;;;;;;;17.33;54.53;101769.00;5343194;27;20123;-71
2022/08/02 00:20:28;;;;;;;6.50;1.97;;;;;;;17.20;55.17;101759.31;5311221;28;20422;-71
2022/08/02 00:22:59;;;;;;;4.50;1.90;;;;;;;17.08;55.27;101755.75;5310667;28;20039;-71
2022/08/02 00:25:30;;;;;;;4.50;2.17;;;;;;;17.32;55.15;101768.13;5309756;28;20026;-71
2022/08/02 00:28:01;;;;;;;6.47;2.00;;;;;;;17.47;53.98;101765.31;5315250;28;20798;-71
2022/08/02 00:30:33;;;;;;;4.73;2.07;;;;;;;17.31;55.48;101781.50;5311741;28;20382;-71
2022/08/02 00:33:04;;;;;;;4.17;2.07;;;;;;;17.31;55.19;101784.16;5314800;28;20023;-71
2022/08/02 00:35:36;;;;;;;8.07;2.13;;;;;;;17.08;55.13;101787.50;5312735;28;20025;-71
2022/08/02 00:38:07;;;;;;;5.20;1.80;;;;;;;17.16;54.61;101779.88;5315460;28;20538;-70
2022/08/02 00:40:39;;;;;;;3.27;1.30;;;;;;;17.13;55.25;101777.44;5313041;28;20054;-71
2022/08/02 00:43:10;;;;;;;7.13;1.80;;;;;;;17.17;54.64;101776.25;5312146;28;20058;-72
2022/08/02 00:45:42;;;;;;;4.83;1.50;;;;;;;17.24;54.31;101766.06;5314586;28;20028;-71
2022/08/02 00:48:13;;;;;;;7.50;1.83;;;;;;;17.14;54.54;101763.25;5313880;28;20054;-71
2022/08/02 00:50:45;;;;;;;4.43;1.53;;;;;;;17.35;52.84;101773.19;5312982;28;20028;-71
2022/08/02 00:53:16;;;;;;;3.43;1.67;;;;;;;17.10;54.79;101767.09;5314202;28;20030;-71
2022/08/02 00:55:47;;;;;;;3.30;1.23;;;;;;;17.13;54.75;101745.69;5313733;28;20028;-72
2022/08/02 00:58:19;;;;;;;3.43;1.40;;;;;;;17.15;54.26;101746.44;5346423;27;20030;-71
2022/08/02 01:00:50;;;;;;;4.63;1.40;;;;;;;17.42;52.55;101750.59;5313736;28;20072;-70
2022/08/02 01:03:23;;;;;;;8.17;1.40;;;;;;;17.52;52.49;101747.28;5312449;28;20051;-71
2022/08/02 01:05:54;;;;;;;6.77;1.77;;;;;;;17.24;52.98;101744.06;5314418;28;20054;-71
2022/08/02 01:08:26;;;;;;;3.93;1.27;;;;;;;17.02;54.00;101735.00;5312176;28;20055;-71
2022/08/02 01:10:57;;;;;;;4.53;1.27;;;;;;;16.94;54.02;101743.50;5314264;28;20039;-71
2022/08/02 01:13:28;;;;;;;5.93;1.50;;;;;;;16.96;53.90;101744.25;5312760;28;20035;-71
2022/08/02 01:16:07;;;;;;;4.13;1.80;;;;;;;17.12;53.78;101753.75;5313572;28;20031;-71
2022/08/02 01:18:44;;;;;;;10.60;2.10;;;;;;;17.17;53.43;101747.13;5311644;28;20455;-70
2022/08/02 01:21:34;;;;;;;8.13;2.23;;;;;;;17.11;53.95;101744.09;5314728;28;20030;-71
2022/08/02 01:24:23;;;;;;;5.50;1.77;;;;;;;17.15;54.21;101751.72;5313201;28;20555;-70
2022/08/02 01:27:11;;;;;;;5.90;2.10;;;;;;;17.17;54.02;101744.47;5313500;28;20095;-71
2022/08/02 01:29:44;;;;;;;5.77;1.47;;;;;;;16.99;54.94;101749.31;5313206;27;20023;-71
2022/08/02 01:32:24;;;;;;;8.38;1.92;;;;;;;17.31;54.14;101755.03;5313012;28;20023;-71
2022/08/02 01:35:06;;;;;;;6.57;1.60;;;;;;;17.06;55.06;101747.06;5313641;28;20494;-71
2022/08/02 01:37:47;;;;;;;4.97;1.67;;;;;;;17.01;54.73;101754.50;5313135;28;20085;-71
2022/08/02 01:40:24;;;;;;;4.67;1.60;;;;;;;17.11;55.24;101744.09;5313244;28;20055;-71
2022/08/02 01:42:57;;;;;;;6.30;1.80;;;;;;;16.91;54.50;101741.91;5311013;28;20027;-70
2022/08/02 01:45:32;;;;;;;6.23;1.97;;;;;;;16.80;54.68;101728.66;5311620;28;20598;-71
2022/08/02 01:48:05;;;;;;;4.07;1.70;;;;;;;17.07;54.46;101737.31;5311463;28;20506;-71
2022/08/02 01:50:39;;;;;;;4.57;2.00;;;;;;;16.76;55.38;101733.31;5312877;28;20033;-70
2022/08/02 01:53:12;;;;;;;6.32;1.73;;;;;;;16.80;55.52;101723.34;5312149;28;20477;-71
2022/08/02 01:55:47;;;;;;;3.47;1.83;;;;;;;16.91;55.21;101723.41;5313816;28;20048;-71
2022/08/02 01:58:23;;;;;;;7.57;2.40;;;;;;;16.89;55.54;101724.47;5311590;28;20023;-71
2022/08/02 02:00:56;;;;;;;6.40;2.03;;;;;;;16.80;55.46;101710.13;5313190;28;20540;-70
2022/08/02 02:03:30;;;;;;;8.73;2.00;;;;;;;16.81;55.52;101720.59;5312957;28;20092;-71
2022/08/02 02:06:06;;;;;;;4.45;1.40;;;;;;;16.97;55.53;101711.53;5312505;28;20811;-71
2022/08/02 02:08:40;;;;;;;7.37;1.87;;;;;;;16.71;56.16;101722.22;5312712;28;20031;-70
2022/08/02 02:11:11;;;;;;;6.25;2.03;;;;;;;16.59;56.80;101713.38;5312142;28;20111;-71
2022/08/02 02:13:43;;;;;;;6.27;2.30;;;;;;;16.62;57.42;101715.78;5310243;28;20102;-71
2022/08/02 02:16:18;;;;;;;7.50;1.87;;;;;;;16.63;57.73;101706.06;5312202;28;20077;-71
2022/08/02 02:18:51;;;;;;;4.55;1.85;;;;;;;16.78;57.17;101698.81;5310802;28;20039;-71
2022/08/02 02:21:22;;;;;;;3.95;1.77;;;;;;;16.54;58.19;101699.63;5310809;28;20040;-71
2022/08/02 02:23:54;;;;;;;7.53;1.97;;;;;;;16.63;57.76;101698.97;5312622;28;20535;-71
2022/08/02 02:26:27;;;;;;;7.53;2.23;;;;;;;16.74;57.24;101684.13;5312452;28;20545;-71
2022/08/02 02:29:01;;;;;;;6.75;1.77;;;;;;;16.75;57.40;101677.88;5309579;28;20034;-71
2022/08/02 02:31:36;;;;;;;4.95;1.63;;;;;;;16.51;58.69;101686.66;5312169;28;20039;-71
2022/08/02 02:34:13;;;;;;;4.33;1.70;;;;;;;16.72;58.13;101678.94;5310808;28;20043;-71
2022/08/02 02:36:49;;;;;;;4.13;1.83;;;;;;;16.63;58.37;101692.84;5312342;28;20092;-71
2022/08/02 02:39:22;;;;;;;5.20;1.57;;;;;;;16.77;57.97;101690.03;5311200;28;20033;-71
2022/08/02 02:41:56;;;;;;;4.72;2.03;;;;;;;16.55;59.15;101682.81;5311806;28;20027;-71
2022/08/02 02:44:29;;;;;;;8.20;2.63;;;;;;;16.78;57.95;101690.88;5311031;28;20027;-70
2022/08/02 02:47:02;;;;;;;7.57;2.33;;;;;;;16.63;58.52;101685.75;5312051;28;20019;-71
2022/08/02 02:49:35;;;;;;;8.73;2.00;;;;;;;16.45;59.99;101683.50;5311256;28;20019;-71
2022/08/02 02:52:07;;;;;;;8.33;2.33;;;;;;;16.62;59.08;101686.69;5310548;28;20030;-71
2022/08/02 02:54:39;;;;;;;6.73;2.20;;;;;;;16.52;60.08;101688.31;5311674;28;20020;-71
2022/08/02 02:57:11;;;;;;;4.07;1.50;;;;;;;16.37;59.93;101671.78;5311494;28;20023;-73
2022/08/02 02:59:42;;;;;;;7.00;1.77;;;;;;;16.53;59.29;101687.38;5312028;28;20462;-72
2022/08/02 03:02:14;;;;;;;8.70;2.03;;;;;;;16.53;59.47;101685.56;5312321;28;20032;-72
2022/08/02 03:04:46;;;;;;;6.10;1.80;;;;;;;16.35;61.30;101679.81;5313109;28;20616;-71
2022/08/02 03:07:17;;;;;;;4.30;1.80;;;;;;;16.38;60.68;101679.59;5312620;28;20027;-71
2022/08/02 03:09:49;;;;;;;7.33;1.97;;;;;;;16.19;60.30;101661.56;5312894;28;20019;-72
2022/08/02 03:12:23;;;;;;;6.70;2.17;;;;;;;16.35;60.50;101673.66;5312707;28;20107;-72
2022/08/02 03:15:03;;;;;;;4.90;1.88;;;;;;;16.31;60.93;101678.34;5310839;28;20020;-72
2022/08/02 03:17:40;;;;;;;6.30;2.00;;;;;;;16.35;60.31;101674.53;5312913;28;20019;-72
2022/08/02 03:20:14;;;;;;;5.97;2.03;;;;;;;16.22;60.74;101674.53;5311371;28;20036;-72
2022/08/02 03:22:46;;;;;;;11.53;2.50;;;;;;;16.17;61.50;101677.53;5312221;28;20023;-72
2022/08/02 03:25:18;;;;;;;5.50;1.90;;;;;;;16.37;60.13;101666.47;5311616;28;20023;-72
2022/08/02 03:27:49;;;;;;;5.90;2.50;;;;;;;16.25;60.21;101662.91;5311073;28;20386;-72
2022/08/02 03:30:23;;;;;;;5.13;1.77;;;;;;;16.09;62.39;101687.78;5311832;28;20103;-72
2022/08/02 03:32:54;;;;;;;5.95;2.30;;;;;;;16.47;60.52;101682.53;5310683;28;20012;-72
2022/08/02 03:35:26;;;;;;;13.50;2.63;;;;;;;16.28;61.46;101667.97;5311978;28;20800;-72
2022/08/02 03:37:58;;;;;;;8.07;1.90;;;;;;;16.36;61.53;101681.50;5312107;28;20059;-71
2022/08/02 03:40:31;;;;;;;7.43;2.43;;;;;;;16.31;61.50;101665.13;5310990;28;20510;-71
2022/08/02 03:43:04;;;;;;;7.67;2.03;;;;;;;16.38;60.87;101658.44;5311318;28;20389;-72
2022/08/02 03:45:38;;;;;;;6.30;1.80;;;;;;;16.23;61.89;101657.75;5311133;28;20027;-72
2022/08/02 03:48:10;;;;;;;7.15;1.67;;;;;;;16.25;62.04;101662.91;5310309;28;20106;-72
2022/08/02 03:50:44;;;;;;;5.80;1.80;;;;;;;16.31;62.09;101663.31;5311694;28;20024;-72
2022/08/02 03:53:17;;;;;;;8.02;2.40;;;;;;;16.24;62.58;101661.22;5309916;28;20027;-72
2022/08/02 03:55:49;;;;;;;5.63;1.80;;;;;;;16.31;62.27;101658.03;5309870;28;20020;-72
2022/08/02 03:58:23;;;;;;;6.37;2.33;;;;;;;16.18;63.21;101652.78;5309777;28;20176;-72
2022/08/02 04:00:56;;;;;;;9.00;2.40;;;;;;;16.08;64.44;101651.72;5312220;28;20517;-72
2022/08/02 04:03:28;;;;;;;8.10;2.60;;;;;;;16.09;63.99;101656.09;5314653;28;20065;-71
2022/08/02 04:05:59;;;;;;;8.43;2.67;;;;;;;16.33;62.61;101650.00;5315736;28;20686;-71
2022/08/02 04:08:32;;;;;;;6.57;2.17;;;;;;;16.20;63.39;101640.28;5314419;28;20039;-72
2022/08/02 04:13:53;;;;;;;7.53;2.03;;;;;;;16.20;64.52;101640.28;5314295;28;20020;-72
2022/08/02 04:17:00;;;;;;;4.53;2.07;;;;;;;16.48;62.47;101641.91;5314261;28;20020;-72
2022/08/02 04:19:54;;;;;;;7.73;2.47;;;;;;;16.39;63.08;101649.53;5300588;27;20071;-71
2022/08/02 04:22:54;;;;;;;6.77;2.63;;;;;;;16.23;63.93;101636.59;5314367;28;20023;-71
2022/08/02 04:25:26;;;;;;;6.63;2.07;;;;;;;16.19;64.03;101628.06;5312192;28;20039;-71
2022/08/02 04:27:59;;;;;;;4.93;2.37;;;;;;;16.28;64.21;101641.56;5312664;28;20024;-71
2022/08/02 04:30:31;;;;;;;7.43;2.50;;;;;;;16.22;65.22;101642.81;5313993;28;20405;-71
2022/08/02 04:33:03;;;;;;;5.77;2.20;;;;;;;16.07;65.26;101642.13;5315091;28;20030;-71
2022/08/02 04:35:34;;;;;;;10.53;2.87;;;;;;;16.14;65.86;101639.91;5314558;28;20152;-71
2022/08/02 04:38:05;;;;;;;5.37;2.43;;;;;;;16.30;65.27;101647.56;5313822;28;20019;-71
2022/08/02 04:40:37;;;;;;;6.90;2.93;;;;;;;16.23;65.58;101652.47;5314777;28;20092;-71
2022/08/02 04:43:08;;;;;;;5.73;2.50;;;;;;;16.19;66.63;101659.75;5313530;28;20055;-71
2022/08/02 04:45:41;;;;;;;7.47;2.37;;;;;;;16.28;66.39;101652.97;5314497;27;20027;-71
2022/08/02 04:48:12;;;;;;;9.03;3.10;;;;;;;16.34;66.34;101646.38;5314246;27;20032;-71
2022/08/02 04:50:44;;;;;;;6.87;2.50;;;;;;;16.35;66.26;101644.59;5314398;28;20033;-72
2022/08/02 04:53:15;;;;;;;8.03;2.43;;;;;;;16.27;68.24;101645.13;5313984;28;20039;-71
2022/08/02 04:55:47;;;;;;;9.87;3.27;;;;;;;16.17;67.98;101624.66;5313736;28;20030;-71
2022/08/02 04:58:18;;;;;;;7.83;3.47;;;;;;;16.18;68.97;101631.63;5313172;28;20027;-72
2022/08/02 05:00:49;;;;;;;7.60;3.10;;;;;;;16.36;68.40;101639.19;5313330;28;20023;-71
2022/08/02 05:03:21;;;;;;;7.97;3.20;;;;;;;16.24;69.69;101642.72;5313483;28;20023;-72
2022/08/02 05:05:52;;;;;;;11.10;3.63;;;;;;;16.32;69.58;101643.00;5314334;28;20072;-72
2022/08/02 05:08:23;;;;;;;7.93;3.80;;;;;;;16.32;70.69;101632.44;5313309;28;20020;-71
2022/08/02 05:10:54;;;;;;;8.53;4.80;;;;;;;16.38;70.26;101639.94;5314056;28;20032;-71
2022/08/02 05:13:26;;;;;;;8.80;3.90;;;;;;;16.28;71.14;101644.19;5312607;28;20723;-71
2022/08/02 05:16:02;;;;;;;8.20;3.70;;;;;;;16.39;71.42;101644.25;5313722;28;20045;-71
2022/08/02 05:18:33;;;;;;;8.20;4.20;;;;;;;16.42;71.22;101632.63;5313121;28;20127;-72
2022/08/02 05:21:04;;;;;;;12.13;4.33;;;;;;;16.50;71.06;101629.41;5313240;28;20106;-71
2022/08/02 05:23:36;;;;;;;10.10;4.63;;;;;;;16.45;72.65;101633.25;5312287;28;20020;-72
2022/08/02 05:26:07;;;;;;;10.20;4.93;;;;;;;16.45;73.97;101633.25;5311959;28;20023;-72
2022/08/02 05:28:38;;;;;;;9.20;4.63;;;;;;;16.45;73.96;101632.41;5312204;28;20080;-71
2022/08/02 05:31:09;;;;;;;8.47;4.77;;;;;;;16.52;74.21;101632.78;5313893;28;20032;-71
2022/08/02 05:33:41;;;;;;;12.07;4.97;;;;;;;16.52;74.90;101627.50;5312392;28;20015;-72
2022/08/02 05:36:12;;;;;;;10.17;5.10;;;;;;;16.59;74.87;101618.19;5313169;28;20030;-72
2022/08/02 05:38:44;;;;;;;6.93;4.73;;;;;;;16.72;74.70;101622.56;5312910;28;20019;-72
2022/08/02 05:41:17;;;;;;;10.70;5.13;;;;;;;16.68;75.33;101622.78;5313337;28;20019;-71
2022/08/02 05:43:49;;;;;;;14.63;6.88;;;;;;;16.81;75.09;101627.16;5310869;28;20374;-72
2022/08/02 05:46:20;;;;;;;10.77;5.60;;;;;;;16.76;75.82;101614.28;5312605;28;20034;-72
2022/08/02 05:48:51;;;;;;;11.37;4.83;;;;;;;16.96;74.83;101626.97;5313336;28;20035;-72
2022/08/02 05:51:32;;;;;;;9.73;5.47;;;;;;;16.95;76.81;101627.94;5312560;28;20157;-71
2022/08/02 05:54:26;;;;;;;11.77;5.87;;;;;;;17.07;75.30;101639.41;5312792;28;20028;-72
2022/08/02 05:57:03;;;;;;;11.73;5.87;;;;;;;17.11;76.75;101640.88;5311564;28;20441;-72
2022/08/02 05:59:44;;;;;;;9.57;5.17;;;;;;;17.26;75.97;101641.53;5310533;28;20024;-72
2022/08/02 06:02:24;;;;;;;16.30;5.93;;;;;;;17.41;75.51;101653.59;5312571;28;20024;-72
2022/08/02 06:05:02;;;;;;;10.80;5.50;;;;;;;17.41;76.40;101656.25;5312335;28;20024;-71
2022/08/02 06:07:35;;;;;;;10.33;6.27;;;;;;;17.42;76.94;101657.94;5312619;28;20480;-72
2022/08/02 06:10:08;;;;;;;9.53;6.07;;;;;;;17.47;77.40;101654.94;5313090;28;20092;-71
2022/08/02 06:12:47;;;;;;;9.13;5.63;;;;;;;17.61;76.58;101659.16;5311286;28;20058;-72
2022/08/02 06:15:19;;;;;;;13.73;6.40;;;;;;;17.61;76.61;101656.50;5310966;28;20015;-72
2022/08/02 06:17:51;;;;;;;9.77;5.73;;;;;;;17.68;76.65;101656.06;5312733;28;20027;-72
2022/08/02 06:20:23;;;;;;;11.53;5.93;;;;;;;17.78;75.97;101659.69;5311984;28;20058;-72
2022/08/02 06:22:58;;;;;;;16.90;7.00;;;;;;;17.83;75.52;101654.84;5312115;28;20514;-72
2022/08/02 06:25:31;;;;;;;13.10;5.93;;;;;;;17.92;75.35;101663.03;5312186;28;20207;-72
2022/08/02 06:28:05;;;;;;;10.93;5.60;;;;;;;17.89;75.79;101664.13;5310055;28;20156;-72
2022/08/02 06:30:36;;;;;;;7.03;5.50;;;;;;;17.96;75.93;101656.56;5311805;28;20436;-71
2022/08/02 06:33:07;;;;;;;8.50;5.97;;;;;;;18.01;77.13;101649.06;5310684;28;20028;-72
2022/08/02 06:35:45;;;;;;;9.53;5.80;;;;;;;18.01;75.93;101641.94;5312040;28;20548;-72
2022/08/02 06:38:31;;;;;;;10.23;6.10;;;;;;;18.07;75.72;101650.38;5312572;28;20107;-72
2022/08/02 06:41:08;;;;;;;10.97;5.97;;;;;;;18.12;76.84;101643.75;5311782;28;20490;-72
2022/08/02 06:43:49;;;;;;;12.17;5.80;;;;;;;18.17;76.12;101638.09;5310003;27;20028;-71
2022/08/02 06:46:21;;;;;;;12.20;6.33;;;;;;;18.23;76.49;101639.44;5311964;28;20024;-72
2022/08/02 06:48:53;;;;;;;9.63;7.53;;;;;;;18.29;76.53;101638.97;5310021;28;20024;-72
2022/08/02 06:51:24;;;;;;;12.70;7.17;;;;;;;18.36;77.10;101639.31;5311359;28;20031;-71
2022/08/02 06:53:56;;;;;;;14.47;7.87;;;;;;;18.44;77.81;101636.88;5310776;28;20028;-71
2022/08/02 06:56:27;;;;;;;14.60;7.77;;;;;;;18.47;77.47;101638.41;5311283;28;20019;-72
2022/08/02 06:58:58;;;;;;;13.20;7.87;;;;;;;18.57;78.31;101635.88;5309395;28;20470;-70
2022/08/02 07:01:30;;;;;;;12.33;7.70;;;;;;;18.70;78.91;101638.34;5310770;27;20035;-71
2022/08/02 07:04:01;;;;;;;12.70;9.30;;;;;;;18.77;78.56;101636.03;5311829;28;20015;-71
2022/08/02 07:06:32;;;;;;;11.63;8.70;;;;;;;18.80;78.31;101636.59;5312133;28;20030;-72
2022/08/02 07:09:04;;;;;;;14.50;9.20;;;;;;;19.00;78.52;101639.44;5311023;28;20027;-72
2022/08/02 07:11:35;;;;;;;13.87;8.97;;;;;;;19.21;77.88;101638.63;5311385;28;20031;-72
2022/08/02 07:14:06;;;;;;;15.27;8.67;;;;;;;19.34;76.90;101639.25;5310810;28;20024;-72
2022/08/02 07:16:38;;;;;;;11.23;7.13;;;;;;;19.62;76.36;101656.47;5311701;28;20031;-71
2022/08/02 07:19:09;;;;;;;16.37;8.20;;;;;;;19.85;74.47;101645.66;5310231;28;20047;-72
2022/08/02 07:21:40;;;;;;;10.73;7.73;;;;;;;20.01;72.91;101643.34;5311871;28;20103;-74
2022/08/02 07:24:11;;;;;;;12.17;7.17;;;;;;;20.07;71.76;101634.84;5312619;28;20210;-71
2022/08/02 07:26:43;;;;;;;11.10;7.37;;;;;;;20.30;70.45;101631.09;5311596;28;20028;-72
2022/08/02 07:29:14;;;;;;;15.63;6.60;;;;;;;20.43;69.84;101621.06;5310907;28;20024;-71
2022/08/02 07:31:45;;;;;;;11.50;6.37;;;;;;;20.68;69.57;101631.31;5312801;28;20023;-72
2022/08/02 07:34:16;;;;;;;12.80;6.57;;;;;;;20.83;68.44;101622.88;5312306;28;20020;-71
2022/08/02 07:36:48;;;;;;;7.93;5.90;;;;;;;21.25;67.49;101627.91;5316847;28;20030;-72
2022/08/02 07:39:19;;;;;;;11.40;5.70;;;;;;;21.75;65.94;101623.25;5315987;28;20534;-72
2022/08/02 07:41:51;;;;;;;10.20;6.30;;;;;;;22.21;63.37;101621.63;5316469;28;20498;-72
2022/08/02 07:44:22;;;;;;;9.00;5.32;;;;;;;22.76;62.46;101613.66;5315330;28;20107;-72
2022/08/02 07:46:53;;;;;;;10.13;5.43;;;;;;;23.11;60.61;101616.44;5314290;28;20023;-71
2022/08/02 07:49:25;;;;;;;9.18;5.10;;;;;;;23.67;58.71;101622.25;5315866;28;20023;-72
2022/08/02 07:51:56;;;;;;;7.13;4.75;;;;;;;24.20;57.16;101625.81;5314560;28;20418;-71
2022/08/02 07:54:28;;;;;;;8.32;4.63;;;;;;;25.27;55.03;101628.69;5315825;28;20027;-72
2022/08/02 07:56:59;;;;;;;4.93;3.20;;;;;;;25.52;54.37;101634.78;5315374;27;20516;-72
2022/08/02 07:59:31;;;;;;;9.00;4.65;;;;;;;25.66;51.51;101635.94;5315304;28;20433;-71
2022/08/02 08:02:02;;;;;;;7.25;4.13;;;;;;;26.29;50.60;101639.66;5315291;28;20081;-71
2022/08/02 08:04:33;;;;;;;6.82;3.13;;;;;;;26.66;49.08;101629.16;5315312;28;20080;-71
2022/08/02 08:07:08;;;;;;;4.65;2.80;;;;;;;27.15;47.74;101632.44;5315904;28;20139;-71
2022/08/02 08:09:44;;;;;;;4.82;2.65;;;;;;;27.36;46.39;101625.50;5314644;28;20020;-71
2022/08/02 08:12:15;;;;;;;5.13;2.50;;;;;;;27.53;46.52;101624.28;5314666;28;20034;-71
2022/08/02 08:14:46;;;;;;;5.97;2.50;;;;;;;27.73;45.04;101631.81;5315593;28;20024;-71
2022/08/02 08:17:18;;;;;;;6.85;2.42;;;;;;;27.64;44.83;101635.59;5315340;28;20429;-72
2022/08/02 08:19:49;;;;;;;4.03;2.22;;;;;;;27.82;44.24;101631.72;5314890;28;20052;-71
2022/08/02 08:22:20;;;;;;;5.88;2.22;;;;;;;27.81;43.42;101640.78;5314844;28;20020;-71
2022/08/02 08:24:52;;;;;;;4.65;2.20;;;;;;;27.84;42.92;101633.16;5315425;28;20222;-71
2022/08/02 08:27:23;;;;;;;6.03;2.13;;;;;;;28.37;42.80;101634.81;5313934;28;20027;-71
2022/08/02 08:29:54;;;;;;;4.05;2.00;;;;;;;28.92;40.90;101630.69;5314687;28;20111;-72
2022/08/02 08:32:26;;;;;;;6.38;2.00;;;;;;;28.84;39.98;101617.38;5314737;27;20023;-71
2022/08/02 08:34:58;;;;;;;5.60;2.40;;;;;;;29.06;39.78;101625.44;5314817;28;20026;-72
2022/08/02 08:37:36;;;;;;;5.63;1.52;;;;;;;29.88;39.82;101616.72;5314554;28;20020;-71
2022/08/02 08:40:09;;;;;;;3.05;1.58;;;;;;;29.62;38.16;101622.84;5314033;28;20055;-71
2022/08/02 08:42:41;;;;;;;3.45;1.65;;;;;;;29.64;38.35;101620.78;5313455;28;20084;-72
2022/08/02 08:45:12;;;;;;;7.55;1.50;;;;;;;30.14;37.44;101628.63;5314170;27;20464;-72
2022/08/02 08:48:03;;;;;;;6.32;1.50;;;;;;;30.25;37.19;101623.69;5313602;28;20024;-72
2022/08/02 08:50:41;;;;;;;4.93;1.40;;;;;;;30.40;36.48;101635.13;5313557;28;20107;-72
2022/08/02 08:53:13;;;;;;;6.53;2.28;;;;;;;30.90;35.11;101644.69;5314154;28;20023;-71
2022/08/02 08:55:44;;;;;;;5.28;1.50;;;;;;;30.51;34.65;101628.25;5313613;28;20019;-71
2022/08/02 08:58:15;;;;;;;3.03;1.40;;;;;;;30.49;35.75;101627.66;5312327;28;20076;-71
2022/08/02 09:00:47;;;;;;;4.85;1.50;;;;;;;30.84;34.81;101633.91;5314866;27;20028;-71
2022/08/02 09:03:18;;;;;;;3.65;1.50;;;;;;;30.93;35.42;101621.00;5312277;28;20061;-72
2022/08/02 09:05:50;;;;;;;2.95;1.45;;;;;;;30.79;35.14;101627.19;5314478;28;20537;-72
2022/08/02 09:08:21;;;;;;;3.75;1.40;;;;;;;31.23;34.95;101632.16;5311875;28;20044;-72
2022/08/02 09:10:53;;;;;;;4.82;1.40;;;;;;;31.22;34.18;101619.69;5314627;28;20139;-72
2022/08/02 09:13:28;;;;;;;7.32;1.40;;;;;;;31.35;32.21;101617.97;5312784;28;20096;-72
2022/08/02 09:16:05;;;;;;;2.90;1.30;;;;;;;31.38;32.12;101629.19;5313482;27;20016;-73
2022/08/02 09:18:38;;;;;;;2.67;1.08;;;;;;;31.99;31.90;101618.13;5313423;28;20133;-72
2022/08/02 09:21:10;;;;;;;2.78;1.30;;;;;;;32.04;30.38;101613.94;5313342;28;20023;-72
2022/08/02 09:23:46;;;;;;;4.20;1.65;;;;;;;32.95;30.57;101619.06;5314235;28;20504;-72
2022/08/02 09:26:22;;;;;;;2.65;1.27;;;;;;;33.25;30.43;101622.91;5312995;28;20398;-72
2022/08/02 09:29:00;;;;;;;3.50;1.13;;;;;;;33.73;29.62;101617.75;5312611;28;20027;-71
2022/08/02 09:31:33;;;;;;;3.45;1.33;;;;;;;33.32;29.25;101620.94;5312647;28;20020;-72
2022/08/02 09:34:04;;;;;;;3.10;1.10;;;;;;;34.28;26.98;101617.81;5312600;28;20016;-72
2022/08/02 09:36:41;;;;;;;5.07;1.00;;;;;;;33.87;25.95;101617.56;5313288;28;20277;-72
2022/08/02 09:39:14;;;;;;;3.53;0.95;;;;;;;34.36;25.61;101630.22;5313230;28;20793;-72
2022/08/02 09:41:45;;;;;;;5.63;1.20;;;;;;;33.71;25.15;101619.03;5312592;28;20041;-72
2022/08/02 09:44:16;;;;;;;5.22;1.00;;;;;;;34.47;25.75;101623.16;5312491;28;20023;-73
2022/08/02 09:46:48;;;;;;;4.15;1.52;;;;;;;34.11;25.03;101623.03;5313100;28;20027;-72
2022/08/02 09:49:19;;;;;;;0.60;0.60;;;;;;;34.15;24.75;101624.25;5312758;28;20019;-72
2022/08/02 09:51:53;;;;;;;4.03;0.90;;;;;;;34.00;24.97;101622.78;5313327;28;20032;-73
2022/08/02 09:54:27;;;;;;;2.05;1.02;;;;;;;34.58;25.04;101633.19;5312804;27;20019;-73
2022/08/02 09:57:00;;;;;;;2.00;1.17;;;;;;;34.50;24.58;101628.09;5312224;28;20024;-72
2022/08/02 09:59:31;;;;;;;;;;;;;;;35.77;24.08;101625.91;5311757;28;20028;-72
2022/08/02 10:02:08;;;;;;;4.47;1.20;;;;;;;35.53;23.96;101630.59;5312986;28;20501;-72
2022/08/02 10:04:40;;;;;;;3.25;1.20;;;;;;;35.25;23.71;101614.00;5312794;28;20292;-72
2022/08/02 10:07:11;;;;;;;2.25;1.02;;;;;;;35.78;23.22;101621.31;5311678;28;20704;-73
2022/08/02 10:09:45;;;;;;;2.47;1.00;;;;;;;35.32;23.41;101613.88;5313172;28;20019;-73
2022/08/02 10:12:17;;;;;;;1.95;0.90;;;;;;;35.46;22.98;101620.69;5311219;28;20536;-73
2022/08/02 10:14:50;;;;;;;2.95;1.00;;;;;;;36.25;22.32;101628.38;5311432;28;20116;-73
2022/08/02 10:17:24;;;;;;;2.58;0.98;;;;;;;36.39;22.58;101615.25;5312568;28;20389;-72
2022/08/02 10:19:55;;;;;;;3.63;0.82;;;;;;;36.29;22.86;101621.38;5310698;28;20046;-72
2022/08/02 10:22:27;;;;;;;3.40;0.90;;;;;;;36.84;22.02;101609.09;5312317;28;20040;-72
2022/08/02 10:25:02;;;;;;;2.63;0.80;;;;;;;36.28;22.07;101610.72;5310803;28;20080;-72
2022/08/02 10:27:34;;;;;;;2.92;1.00;;;;;;;36.25;22.51;101611.19;5311320;28;20026;-72
2022/08/02 10:30:08;;;;;;;4.95;0.80;;;;;;;36.30;22.07;101598.50;5312547;28;20038;-72
2022/08/02 10:32:44;;;;;;;4.07;1.45;;;;;;;36.95;21.11;101601.88;5312017;28;20012;-72
2022/08/02 10:35:18;;;;;;;4.30;0.80;;;;;;;37.32;21.14;101598.50;5312348;28;20470;-72
2022/08/02 10:37:53;;;;;;;3.88;0.80;;;;;;;36.73;20.82;101608.91;5311810;28;20727;-72
2022/08/02 10:40:27;;;;;;;3.53;0.70;;;;;;;37.05;21.29;101599.25;5311846;28;20514;-72
2022/08/02 10:42:59;;;;;;;3.95;0.90;;;;;;;36.59;21.64;101604.91;5309151;28;20022;-72
2022/08/02 10:45:30;;;;;;;6.10;0.83;;;;;;;36.67;21.40;101601.75;5311878;28;20700;-72
2022/08/02 10:48:08;;;;;;;4.87;0.73;;;;;;;36.43;21.89;101599.22;5310560;28;20112;-72
2022/08/02 10:50:46;;;;;;;3.58;0.80;;;;;;;35.76;21.82;101601.66;5312110;28;20035;-72
2022/08/02 10:53:27;;;;;;;3.95;0.80;;;;;;;35.66;22.46;101597.63;5310927;28;20024;-72
2022/08/02 10:56:00;;;;;;;2.70;1.20;;;;;;;34.99;22.29;101603.41;5311618;28;20027;-72
2022/08/02 10:58:33;;;;;;;3.05;0.70;;;;;;;35.48;22.11;101596.78;5310774;28;20007;-71
2022/08/02 11:01:26;;;;;;;1.50;0.60;;;;;;;35.82;21.73;101589.75;5311699;28;20058;-72
2022/08/02 11:03:58;;;;;;;2.42;0.88;;;;;;;35.87;21.96;101589.84;5311286;28;20020;-72
2022/08/02 11:06:30;;;;;;;5.40;0.93;;;;;;;35.73;21.60;101587.41;5311752;28;20667;-72
2022/08/02 11:09:27;;;;;;;4.90;0.80;;;;;;;35.86;22.32;101585.47;5311678;28;20082;-71
2022/08/02 11:12:06;;;;;;;2.92;0.80;;;;;;;35.21;22.82;101591.03;5310842;28;20433;-72
2022/08/02 11:14:40;;;;;;;2.35;0.95;;;;;;;35.34;21.96;101592.69;5311864;28;20020;-72
2022/08/02 11:17:17;;;;;;;2.83;0.57;;;;;;;34.49;22.51;101591.13;5310100;28;20099;-72
2022/08/02 11:20:07;;;;;;;4.25;0.70;;;;;;;35.36;23.38;101593.28;5310442;28;20557;-72
2022/08/02 11:22:41;;;;;;;15.18;1.58;;;;;;;35.15;22.67;101581.13;5310954;28;20170;-72
2022/08/02 11:25:24;;;;;;;2.80;0.93;;;;;;;34.64;23.40;101596.06;5310787;28;20077;-71
2022/08/02 11:28:07;;;;;;;1.98;0.70;;;;;;;34.79;23.18;101595.59;5309731;28;20047;-72
2022/08/02 11:30:39;;;;;;;1.55;0.68;;;;;;;34.06;22.76;101593.03;5309942;28;20028;-71
2022/08/02 11:33:10;;;;;;;8.00;1.25;;;;;;;34.50;22.23;101579.16;5309504;28;20015;-73
2022/08/02 11:35:42;;;;;;;3.72;0.90;;;;;;;34.60;22.30;101584.84;5311502;28;20541;-72
2022/08/02 11:38:15;;;;;;;5.73;1.00;;;;;;;34.59;22.78;101588.63;5311207;28;20077;-72
2022/08/02 11:40:47;;;;;;;;;;;;;;;35.28;22.74;101567.25;5311267;28;20129;-71
2022/08/02 11:43:25;;;;;;;5.13;0.63;;;;;;;33.78;22.58;101577.16;5310446;28;19923;-72
2022/08/02 11:46:00;;;;;;;4.13;0.70;;;;;;;33.56;23.36;101582.25;5310951;28;20019;-72
2022/08/02 11:48:40;;;;;;;5.07;0.77;;;;;;;33.94;23.22;101590.28;5311129;28;20053;-72
2022/08/02 11:51:13;;;;;;;4.07;1.05;;;;;;;34.06;23.24;101590.31;5309080;28;20024;-73
2022/08/02 11:53:52;;;;;;;3.95;1.00;;;;;;;34.26;23.56;101590.84;5311312;28;20034;-72
2022/08/02 11:56:29;;;;;;;6.80;1.35;;;;;;;34.25;22.94;101586.47;5308108;28;20497;-72